Terminal Aerodrome Forecast
Issued by NWS Bismarck, ND

Home | Current Version | Previous Version | Graphics & Text | Print | Product List | Glossary On
Versions: 1 2 3 4 5 6 7 8 9 10 11 12 13 14 15 16 17
000
FTUS43 KBIS 242000 AAA
TAFISN
TAF AMD
KISN 242016Z 2420/2518 26008KT P6SM OVC018
     FM242100 28015KT P6SM -SHRA SCT009 OVC025
     FM251100 31015KT P6SM VCSH OVC008
     FM251500 32015KT P6SM OVC015=

USA.gov is the U.S. government's official web portal to all federal, state and local government web resources and services.